Time;durP1;ratioP1;P1;durP2;ratioP2;P2;SDS_P1;SDS_P2;PMS_P1;PMS_P2;Temp;Humidity;BMP_temperature;BMP_pressure;BME280_temperature;BME280_humidity;BME280_pressure;Samples;Min_cycle;Max_cycle;Signal;HPM_P1;HPM_P2
2023/11/06 00:00:34;;;;;;;11.00;3.10;;;;;;;-147.86;100.00;50322.09;105712;1254;62078;-48
2023/11/06 00:03:00;;;;;;;15.40;2.80;;;;;;;-147.86;100.00;50320.91;105716;1254;60398;-48
2023/11/06 00:05:28;;;;;;;12.60;3.00;;;;;;;-147.86;100.00;50334.25;105656;1257;72816;-49
2023/11/06 00:07:58;;;;;;;15.30;3.10;;;;;;;-147.86;100.00;50329.93;105706;1253;64093;-47
2023/11/06 00:10:24;;;;;;;9.10;2.60;;;;;;;-147.86;100.00;50336.60;105748;1254;72541;-48
2023/11/06 00:12:51;;;;;;;13.90;2.90;;;;;;;-147.86;100.00;50327.97;105776;1257;61850;-50
2023/11/06 00:15:20;;;;;;;16.90;3.60;;;;;;;-147.86;100.00;50338.95;105735;1253;60426;-46
2023/11/06 00:17:47;;;;;;;14.20;2.70;;;;;;;-147.86;100.00;50344.45;105710;1257;73931;-45
2023/11/06 00:20:16;;;;;;;12.00;2.80;;;;;;;-147.86;100.00;50364.84;105716;1257;64676;-50
2023/11/06 00:22:43;;;;;;;10.60;2.90;;;;;;;-147.86;100.00;50355.43;105714;1254;72693;-51
2023/11/06 00:25:10;;;;;;;11.20;2.90;;;;;;;-147.86;100.00;50356.21;105683;1253;61841;-51
2023/11/06 00:27:38;;;;;;;10.10;2.90;;;;;;;-147.86;100.00;50366.02;105713;1253;60409;-47
2023/11/06 00:30:07;;;;;;;16.00;3.70;;;;;;;-147.86;100.00;50372.69;105699;1252;73755;-48
2023/11/06 00:32:34;;;;;;;15.20;3.10;;;;;;;-147.86;100.00;50377.79;105778;1257;63520;-49
2023/11/06 00:35:01;;;;;;;15.30;3.60;;;;;;;-147.86;100.00;50375.83;105722;1252;72452;-50
2023/11/06 00:37:28;;;;;;;14.10;4.00;;;;;;;-147.86;100.00;50390.73;105700;1254;61973;-49
2023/11/06 00:39:55;;;;;;;14.90;3.70;;;;;;;-147.86;100.00;50383.68;105709;1253;60422;-47
2023/11/06 00:42:22;;;;;;;15.20;3.70;;;;;;;-147.86;100.00;50393.88;105734;1254;73912;-47
2023/11/06 00:44:48;;;;;;;25.10;3.70;;;;;;;-147.86;100.00;50387.60;105744;1253;64689;-51
2023/11/06 00:47:15;;;;;;;14.80;3.60;;;;;;;-147.86;100.00;50397.41;105665;1254;72417;-51
2023/11/06 00:49:43;;;;;;;12.20;4.60;;;;;;;-147.86;100.00;50393.48;105640;1259;61782;-48
2023/11/06 00:52:11;;;;;;;17.10;4.50;;;;;;;-147.86;100.00;50380.93;105654;1253;60441;-49
2023/11/06 00:54:39;;;;;;;19.50;4.40;;;;;;;-147.86;100.00;50400.93;105679;1257;73927;-52
2023/11/06 00:57:06;;;;;;;14.40;4.00;;;;;;;-147.86;100.00;50404.46;105536;1253;65048;-48
2023/11/06 01:00:37;;;;;;;11.80;3.60;;;;;;;-147.86;100.00;50407.24;102540;1296;602431;-49
2023/11/06 01:03:04;;;;;;;17.70;3.90;;;;;;;-147.86;100.00;50563.74;105051;1270;62016;-52
2023/11/06 01:05:31;;;;;;;19.30;3.60;;;;;;;-147.86;100.00;50503.32;105054;1264;60307;-48
2023/11/06 01:08:04;;;;;;;14.20;3.30;;;;;;;-147.86;100.00;50479.79;105214;1267;72016;-50
2023/11/06 01:10:32;;;;;;;12.10;2.90;;;;;;;-147.86;100.00;50493.91;105226;1270;64498;-48
2023/11/06 01:13:01;;;;;;;11.40;3.30;;;;;;;-147.86;100.00;50471.94;104992;1270;264772;-49
2023/11/06 01:15:32;;;;;;;20.00;3.80;;;;;;;-147.86;100.00;50462.14;105214;1264;60618;-51
2023/11/06 01:17:59;;;;;;;16.20;4.70;;;;;;;-147.86;100.00;50464.49;105295;1263;60689;-50
2023/11/06 01:20:26;;;;;;;9.90;3.20;;;;;;;-147.86;100.00;50443.30;105229;1267;72098;-48
2023/11/06 01:22:53;;;;;;;20.70;5.20;;;;;;;-147.86;100.00;50454.68;105244;1267;64757;-50
2023/11/06 01:25:21;;;;;;;17.30;3.60;;;;;;;-147.86;100.00;50469.98;105227;1264;72939;-48
2023/11/06 01:27:48;;;;;;;14.80;3.90;;;;;;;-147.86;100.00;50449.58;105164;1268;61968;-48
2023/11/06 01:30:15;;;;;;;12.10;4.00;;;;;;;-147.86;100.00;50464.10;105226;1263;60242;-48
2023/11/06 01:32:42;;;;;;;11.90;3.60;;;;;;;-147.86;100.00;50450.37;105239;1263;72974;-47
2023/11/06 01:35:11;;;;;;;11.80;3.80;;;;;;;-147.86;100.00;50433.49;104960;1266;64526;-49
2023/11/06 01:37:38;;;;;;;13.90;3.30;;;;;;;-147.86;100.00;50453.50;105106;1267;72659;-48
2023/11/06 01:40:10;;;;;;;13.40;3.60;;;;;;;-147.86;100.00;50444.09;105245;1264;61821;-53
2023/11/06 01:42:43;;;;;;;12.30;3.90;;;;;;;-147.86;100.00;50449.58;105183;1264;60501;-51
2023/11/06 01:45:10;;;;;;;13.50;3.50;;;;;;;-147.86;100.00;50448.80;104929;1270;73092;-53
2023/11/06 01:47:37;;;;;;;17.50;4.30;;;;;;;-147.86;100.00;50437.81;105292;1267;64659;-52
2023/11/06 01:50:05;;;;;;;15.40;3.60;;;;;;;-147.86;100.00;50423.69;105186;1267;72564;-47
2023/11/06 01:52:32;;;;;;;16.80;3.20;;;;;;;-147.86;100.00;50429.18;104952;1269;62044;-49
2023/11/06 01:54:58;;;;;;;17.60;4.00;;;;;;;-147.86;100.00;50418.59;105245;1264;60240;-48
2023/11/06 01:57:26;;;;;;;20.10;3.60;;;;;;;-147.86;100.00;50428.39;105192;1264;72974;-51
2023/11/06 01:59:54;;;;;;;10.80;3.50;;;;;;;-147.86;100.00;50428.79;104972;1269;65189;-49
2023/11/06 02:02:22;;;;;;;13.90;3.70;;;;;;;-147.86;100.00;50414.27;105013;1264;72636;-52
2023/11/06 02:04:49;;;;;;;25.00;4.40;;;;;;;-147.86;100.00;50426.04;105258;1263;60212;-49
2023/11/06 02:07:17;;;;;;;11.70;3.70;;;;;;;-147.86;100.00;50421.73;104959;1263;61837;-50
2023/11/06 02:09:44;;;;;;;6.80;3.20;;;;;;;-147.86;100.00;50428.01;105154;1269;72827;-55
2023/11/06 02:12:11;;;;;;;15.80;4.10;;;;;;;-147.86;100.00;50429.96;105196;1267;65521;-50
2023/11/06 02:14:51;;;;;;;19.00;3.80;;;;;;;-147.86;100.00;50424.08;104812;1264;71663;-48
2023/11/06 02:17:18;;;;;;;22.30;3.90;;;;;;;-147.86;100.00;50420.16;104866;1269;62083;-50
2023/11/06 02:19:46;;;;;;;13.00;3.60;;;;;;;-147.86;100.00;50415.84;105028;1264;60270;-53
2023/11/06 02:22:20;;;;;;;13.70;4.30;;;;;;;-147.86;100.00;50401.32;105178;1267;72088;-53
2023/11/06 02:24:50;;;;;;;19.30;4.40;;;;;;;-147.86;100.00;50412.71;105264;1267;64696;-51
2023/11/06 02:27:17;;;;;;;19.10;4.30;;;;;;;-147.86;100.00;50426.43;105638;1257;72619;-53
2023/11/06 02:29:45;;;;;;;16.60;4.10;;;;;;;-147.86;100.00;50404.86;105591;1260;61892;-54
2023/11/06 02:32:12;;;;;;;11.60;3.60;;;;;;;-147.86;100.00;50411.13;105584;1257;59991;-52
2023/11/06 02:34:44;;;;;;;12.20;3.50;;;;;;;-147.86;100.00;50412.70;105652;1257;73020;-49
2023/11/06 02:37:11;;;;;;;18.40;4.60;;;;;;;-147.86;100.00;50437.03;105711;1260;65492;-47
2023/11/06 02:39:39;;;;;;;17.90;4.00;;;;;;;-147.86;100.00;50404.07;105672;1258;71502;-50
2023/11/06 02:42:06;;;;;;;20.10;4.10;;;;;;;-147.86;100.00;50410.74;105615;1260;61925;-51
2023/11/06 02:44:33;;;;;;;14.10;4.10;;;;;;;-147.86;100.00;50409.17;105627;1257;60204;-48
2023/11/06 02:47:00;;;;;;;18.80;3.80;;;;;;;-147.86;100.00;50405.25;105683;1257;72022;-50
2023/11/06 02:49:27;;;;;;;13.90;3.70;;;;;;;-147.86;100.00;50413.10;105682;1260;64565;-48
2023/11/06 02:51:54;;;;;;;12.70;3.80;;;;;;;-147.86;100.00;50409.18;105689;1257;72565;-49
2023/11/06 02:54:24;;;;;;;14.00;4.10;;;;;;;-147.86;100.00;50422.90;105656;1260;61955;-48
2023/11/06 02:56:51;;;;;;;17.30;3.60;;;;;;;-147.86;100.00;50404.46;105592;1257;60224;-49
2023/11/06 02:59:19;;;;;;;17.50;4.00;;;;;;;-147.86;100.00;50390.74;105564;1258;71910;-49
2023/11/06 03:01:46;;;;;;;11.80;3.20;;;;;;;-147.86;100.00;50413.88;105650;1260;65458;-46
2023/11/06 03:04:13;;;;;;;14.00;3.30;;;;;;;-147.86;100.00;50394.66;105656;1257;72542;-51
2023/11/06 03:06:40;;;;;;;10.00;3.20;;;;;;;-147.86;100.00;50395.05;105635;1260;61942;-48
2023/11/06 03:09:12;;;;;;;11.70;3.50;;;;;;;-147.86;100.00;50382.89;105632;1257;59650;-50
2023/11/06 03:11:38;;;;;;;9.70;2.70;;;;;;;-147.86;100.00;50378.97;105660;1256;72839;-50
2023/11/06 03:14:05;;;;;;;11.60;3.20;;;;;;;-147.86;100.00;50389.17;105687;1260;64639;-51
2023/11/06 03:16:35;;;;;;;9.00;2.70;;;;;;;-147.86;100.00;50373.48;105638;1257;72341;-50
2023/11/06 03:19:05;;;;;;;11.60;3.40;;;;;;;-147.86;100.00;50388.77;105598;1260;61985;-47
2023/11/06 03:21:32;;;;;;;12.60;2.80;;;;;;;-147.86;100.00;50382.11;105622;1256;60287;-49
2023/11/06 03:23:59;;;;;;;8.90;2.40;;;;;;;-147.86;100.00;50384.46;105679;1257;73071;-49
2023/11/06 03:26:26;;;;;;;12.40;2.40;;;;;;;-147.86;100.00;50372.69;105581;1260;64702;-52
2023/11/06 03:28:53;;;;;;;23.30;3.20;;;;;;;-147.86;100.00;50377.01;105624;1257;73057;-50
2023/11/06 03:31:20;;;;;;;9.20;2.80;;;;;;;-147.86;100.00;50377.40;105637;1260;61836;-48
2023/11/06 03:33:47;;;;;;;11.10;2.40;;;;;;;-147.86;100.00;50382.10;105609;1256;60746;-51
2023/11/06 03:36:14;;;;;;;7.40;2.20;;;;;;;-147.86;100.00;50391.13;105547;1257;73117;-51
2023/11/06 03:38:41;;;;;;;11.50;2.60;;;;;;;-147.86;100.00;50385.24;105586;1260;64350;-47
2023/11/06 03:41:08;;;;;;;16.30;3.10;;;;;;;-147.86;100.00;50373.48;105613;1257;72666;-46
2023/11/06 03:43:35;;;;;;;9.20;2.00;;;;;;;-147.86;100.00;50398.97;105627;1260;61915;-52
2023/11/06 03:46:03;;;;;;;10.70;2.70;;;;;;;-147.86;100.00;50396.62;105647;1257;60287;-50
2023/11/06 03:48:31;;;;;;;9.00;1.80;;;;;;;-147.86;100.00;50386.82;105531;1263;73049;-50
2023/11/06 03:50:58;;;;;;;8.60;2.00;;;;;;;-147.86;100.00;50396.62;105550;1263;64737;-50
2023/11/06 03:53:25;;;;;;;11.00;2.40;;;;;;;-147.86;100.00;50394.66;105586;1257;72531;-52
2023/11/06 03:55:52;;;;;;;8.90;2.50;;;;;;;-147.86;100.00;50409.96;105584;1259;61976;-50
2023/11/06 03:58:19;;;;;;;13.10;2.80;;;;;;;-147.86;100.00;50410.35;105643;1257;59599;-52
2023/11/06 04:00:46;;;;;;;12.50;2.40;;;;;;;-147.86;100.00;50396.23;105587;1260;72917;-49
2023/11/06 04:03:13;;;;;;;8.80;1.80;;;;;;;-147.86;100.00;50420.16;105622;1260;64693;-48
2023/11/06 04:05:41;;;;;;;8.90;1.80;;;;;;;-147.86;100.00;50423.29;105601;1257;72527;-48
2023/11/06 04:08:09;;;;;;;14.00;2.30;;;;;;;-147.86;100.00;50422.51;105644;1256;60846;-53
2023/11/06 04:10:38;;;;;;;11.50;2.20;;;;;;;-147.86;100.00;50425.26;105641;1257;60338;-50
2023/11/06 04:13:05;;;;;;;10.60;2.00;;;;;;;-147.86;100.00;50428.79;105616;1257;73070;-54
2023/11/06 04:15:34;;;;;;;9.70;2.20;;;;;;;-147.86;100.00;50438.98;105625;1260;64730;-49
2023/11/06 04:18:02;;;;;;;11.40;1.90;;;;;;;-147.86;100.00;50458.21;105622;1257;72630;-50
2023/11/06 04:20:29;;;;;;;8.80;2.30;;;;;;;-147.86;100.00;50440.16;105631;1260;61817;-49
2023/11/06 04:22:56;;;;;;;11.20;2.10;;;;;;;-147.86;100.00;50439.77;105609;1257;62048;-48
2023/11/06 04:25:23;;;;;;;15.20;3.00;;;;;;;-147.86;100.00;50467.23;105654;1258;72999;-48
2023/11/06 04:27:51;;;;;;;15.90;2.50;;;;;;;-147.86;100.00;50457.43;105609;1256;65362;-48
2023/11/06 04:30:17;;;;;;;7.80;2.00;;;;;;;-147.86;100.00;50456.25;105619;1257;72693;-50
2023/11/06 04:32:44;;;;;;;6.40;1.90;;;;;;;-147.86;100.00;50465.27;105673;1257;61670;-50
2023/11/06 04:35:11;;;;;;;11.90;2.50;;;;;;;-147.86;100.00;50468.41;105651;1256;60287;-52
2023/11/06 04:37:39;;;;;;;16.20;2.90;;;;;;;-147.86;100.00;50483.32;105615;1257;73095;-46
2023/11/06 04:40:11;;;;;;;6.10;1.50;;;;;;;-147.86;100.00;50485.67;105611;1260;64545;-50
2023/11/06 04:42:40;;;;;;;12.30;1.70;;;;;;;-147.86;100.00;50498.23;105667;1257;72669;-49
2023/11/06 04:45:11;;;;;;;11.60;2.40;;;;;;;-147.86;100.00;50498.23;105657;1260;61795;-50
2023/11/06 04:47:38;;;;;;;10.60;2.00;;;;;;;-147.86;100.00;50478.21;105660;1257;60127;-50
2023/11/06 04:50:05;;;;;;;12.30;1.90;;;;;;;-147.86;100.00;50503.32;105663;1260;73039;-51
2023/11/06 04:52:32;;;;;;;8.90;2.00;;;;;;;-147.86;100.00;50506.86;105659;1260;64554;-51
2023/11/06 04:54:59;;;;;;;5.80;1.70;;;;;;;-147.86;100.00;50493.91;105671;1257;72438;-51
2023/11/06 04:57:26;;;;;;;8.30;1.50;;;;;;;-147.86;100.00;50495.87;105601;1260;62141;-48
2023/11/06 04:59:53;;;;;;;10.80;2.10;;;;;;;-147.86;100.00;50503.32;105625;1257;60235;-49
2023/11/06 05:02:20;;;;;;;8.30;1.60;;;;;;;-147.86;100.00;50497.44;105943;1256;72982;-50
2023/11/06 05:04:47;;;;;;;8.60;1.80;;;;;;;-147.86;100.00;50506.07;105974;1256;64707;-51
2023/11/06 05:07:14;;;;;;;8.40;1.80;;;;;;;-147.86;100.00;50510.39;105909;1253;72414;-48
2023/11/06 05:09:42;;;;;;;7.60;1.90;;;;;;;-147.86;100.00;50512.74;105575;1257;61973;-51
2023/11/06 05:12:10;;;;;;;7.40;1.80;;;;;;;-147.86;100.00;50529.61;105839;1254;60533;-51
2023/11/06 05:14:37;;;;;;;5.40;1.60;;;;;;;-147.86;100.00;50528.04;105955;1252;73575;-54
2023/11/06 05:17:05;;;;;;;4.60;1.90;;;;;;;-147.86;100.00;50515.09;105899;1254;64650;-54
2023/11/06 05:19:37;;;;;;;4.50;1.60;;;;;;;-147.86;100.00;50524.90;105889;1254;72410;-48
2023/11/06 05:22:04;;;;;;;9.80;1.80;;;;;;;-147.86;100.00;50535.49;105906;1254;60886;-48
2023/11/06 05:24:32;;;;;;;7.30;2.10;;;;;;;-147.86;100.00;50525.68;105943;1253;60452;-52
2023/11/06 05:27:00;;;;;;;6.40;1.70;;;;;;;-147.86;100.00;50533.92;105905;1252;73708;-49
2023/11/06 05:29:27;;;;;;;7.50;1.70;;;;;;;-147.86;100.00;50522.54;105947;1256;64621;-51
2023/11/06 05:31:54;;;;;;;11.90;2.00;;;;;;;-147.86;100.00;50542.16;105964;1254;72625;-49
2023/11/06 05:34:21;;;;;;;11.60;2.10;;;;;;;-147.86;100.00;50525.29;105908;1254;62004;-47
2023/11/06 05:36:48;;;;;;;8.90;1.70;;;;;;;-147.86;100.00;50504.50;105895;1254;60530;-51
2023/11/06 05:39:15;;;;;;;12.60;2.10;;;;;;;-147.86;100.00;50507.64;105886;1252;74208;-48
2023/11/06 05:41:46;;;;;;;12.60;2.40;;;;;;;-147.86;100.00;50495.48;105870;1256;64675;-48
2023/11/06 05:44:14;;;;;;;10.30;2.00;;;;;;;-147.86;100.00;50471.95;105894;1254;73069;-49
2023/11/06 05:46:43;;;;;;;3.70;1.50;;;;;;;-147.86;100.00;50455.07;105928;1251;62034;-49
2023/11/06 05:49:10;;;;;;;5.10;1.60;;;;;;;-147.86;100.00;50418.98;105986;1253;60434;-50
2023/11/06 05:51:38;;;;;;;7.10;1.40;;;;;;;-147.86;100.00;50398.97;105941;1254;73812;-49
2023/11/06 05:54:06;;;;;;;6.30;1.50;;;;;;;-147.86;100.00;50384.46;105911;1256;64567;-50
2023/11/06 05:56:33;;;;;;;10.00;1.90;;;;;;;-147.86;100.00;50345.62;105892;1253;71401;-52
2023/11/06 05:59:02;;;;;;;3.40;1.40;;;;;;;-147.86;100.00;50307.18;106035;1255;61809;-51
2023/11/06 06:01:30;;;;;;;8.10;1.70;;;;;;;-147.86;100.00;50264.02;105989;1254;60457;-50
2023/11/06 06:03:57;;;;;;;11.60;1.60;;;;;;;-147.86;100.00;50227.94;105941;1253;73881;-50
2023/11/06 06:06:25;;;;;;;6.40;1.30;;;;;;;-147.86;100.00;50200.09;105934;1255;64644;-50
2023/11/06 06:08:52;;;;;;;6.00;1.30;;;;;;;-147.86;100.00;50196.16;105973;1252;72635;-47
2023/11/06 06:11:19;;;;;;;6.10;1.70;;;;;;;-147.86;100.00;50166.75;105984;1256;61672;-47
2023/11/06 06:13:46;;;;;;;4.00;1.50;;;;;;;-147.86;100.00;50119.28;105883;1251;60470;-50
2023/11/06 06:16:13;;;;;;;7.60;1.60;;;;;;;-147.86;100.00;50082.41;105888;1251;72876;-50
2023/11/06 06:18:40;;;;;;;4.90;1.60;;;;;;;-147.86;100.00;50054.16;105937;1254;63677;-49
2023/11/06 06:21:08;;;;;;;8.30;1.90;;;;;;;-147.86;100.00;50016.90;105982;1253;72591;-49
2023/11/06 06:23:34;;;;;;;5.40;1.50;;;;;;;-147.86;100.00;49973.36;105910;1256;61647;-47
2023/11/06 06:26:03;;;;;;;9.60;1.60;;;;;;;-147.86;100.00;49927.47;105975;1251;60417;-51
2023/11/06 06:28:30;;;;;;;11.00;1.60;;;;;;;-147.86;100.00;49900.01;105952;1256;73779;-49
2023/11/06 06:30:57;;;;;;;5.30;1.80;;;;;;;-147.86;100.00;49836.86;105939;1256;64635;-48
2023/11/06 06:33:23;;;;;;;10.60;2.00;;;;;;;-147.86;100.00;49772.14;105977;1251;72501;-51
2023/11/06 06:35:50;;;;;;;5.00;1.80;;;;;;;-147.86;100.00;49719.98;105941;1255;61942;-48
2023/11/06 06:38:18;;;;;;;10.30;1.60;;;;;;;-147.86;100.00;49662.71;105984;1251;60468;-52
2023/11/06 06:40:49;;;;;;;8.90;1.60;;;;;;;-147.86;100.00;49596.04;105970;1257;72811;-49
2023/11/06 06:43:19;;;;;;;5.60;1.70;;;;;;;-147.86;100.00;49539.95;105971;1256;65421;-51
2023/11/06 06:45:46;;;;;;;6.20;1.50;;;;;;;-147.86;100.00;49464.26;105966;1251;72510;-53
2023/11/06 06:48:15;;;;;;;6.80;1.90;;;;;;;-147.86;100.00;49438.37;105997;1253;62182;-49
2023/11/06 06:50:42;;;;;;;6.50;1.70;;;;;;;-147.86;100.00;49383.07;105921;1254;60562;-52
2023/11/06 06:53:10;;;;;;;3.30;1.40;;;;;;;-147.86;100.00;49337.58;105927;1252;73831;-49
2023/11/06 06:55:37;;;;;;;7.60;2.00;;;;;;;-147.86;100.00;49288.16;105987;1253;64640;-51
2023/11/06 06:58:04;;;;;;;5.80;1.50;;;;;;;-147.86;100.00;49234.04;105947;1256;72434;-48
2023/11/06 07:00:35;;;;;;;7.10;1.40;;;;;;;-147.86;100.00;49161.49;105926;1255;62879;-50
2023/11/06 07:03:06;;;;;;;8.90;1.80;;;;;;;-147.86;100.00;49144.24;106016;1252;60530;-51
2023/11/06 07:05:33;;;;;;;5.00;1.70;;;;;;;-147.86;100.00;49106.59;105974;1256;73830;-50
2023/11/06 07:08:01;;;;;;;9.40;1.90;;;;;;;-147.86;100.00;49067.77;105915;1254;64497;-50
2023/11/06 07:10:30;;;;;;;13.80;1.70;;;;;;;-147.86;100.00;49044.63;105956;1254;72628;-52
2023/11/06 07:12:57;;;;;;;14.00;2.40;;;;;;;-147.86;100.00;49024.63;105931;1254;61634;-51
2023/11/06 07:15:28;;;;;;;12.60;2.00;;;;;;;-147.86;100.00;48997.18;105960;1253;60456;-51
2023/11/06 07:17:56;;;;;;;4.30;1.40;;;;;;;-147.86;100.00;48963.45;105898;1254;73594;-51
2023/11/06 07:20:24;;;;;;;44.30;3.90;;;;;;;-147.86;100.00;48940.31;105950;1254;64592;-51
2023/11/06 07:22:51;;;;;;;15.00;2.00;;;;;;;-147.86;100.00;48918.35;105945;1256;72489;-47
2023/11/06 07:25:17;;;;;;;18.40;2.20;;;;;;;-147.86;100.00;48883.85;105919;1256;60539;-50
2023/11/06 07:27:45;;;;;;;4.10;1.30;;;;;;;-147.86;100.00;48887.38;105962;1251;60444;-51
2023/11/06 07:30:12;;;;;;;8.80;1.80;;;;;;;-147.86;100.00;48897.18;105963;1254;73816;-50
2023/11/06 07:32:39;;;;;;;9.90;2.50;;;;;;;-147.86;100.00;48888.95;105909;1251;64568;-49
2023/11/06 07:35:09;;;;;;;6.40;1.80;;;;;;;-147.86;100.00;48912.87;105971;1254;72504;-52
2023/11/06 07:37:36;;;;;;;59.30;4.60;;;;;;;-147.86;100.00;48883.85;105929;1256;60428;-49
2023/11/06 07:40:05;;;;;;;7.70;1.80;;;;;;;-147.86;100.00;48810.91;106025;1254;60325;-48
2023/11/06 07:42:32;;;;;;;7.30;1.80;;;;;;;-147.86;100.00;48771.30;105934;1254;73782;-49
2023/11/06 07:44:59;;;;;;;31.40;3.60;;;;;;;-147.86;100.00;48737.58;105964;1254;64557;-52
2023/11/06 07:47:26;;;;;;;12.50;2.40;;;;;;;-147.86;100.00;48700.32;105993;1251;72552;-51
2023/11/06 07:49:53;;;;;;;4.00;1.20;;;;;;;-147.86;100.00;48675.23;105857;1256;60338;-50
2023/11/06 07:52:21;;;;;;;2.20;1.20;;;;;;;-147.86;100.00;48607.01;105719;1254;60475;-52
2023/11/06 07:54:48;;;;;;;21.80;1.90;;;;;;;-147.86;100.00;48607.01;105744;1253;74843;-49
2023/11/06 07:57:15;;;;;;;65.60;5.10;;;;;;;-147.86;100.00;48606.61;105887;1255;64951;-52
2023/11/06 07:59:42;;;;;;;3.80;1.30;;;;;;;-147.86;100.00;48571.32;105956;1254;72614;-53
2023/11/06 08:02:10;;;;;;;8.60;1.70;;;;;;;-147.86;100.00;48535.64;106045;1255;60830;-54
2023/11/06 08:04:38;;;;;;;12.30;2.60;;;;;;;-147.86;100.00;48517.60;106016;1254;60393;-50
2023/11/06 08:07:06;;;;;;;21.00;2.50;;;;;;;-147.86;100.00;48506.63;105985;1256;74484;-50
2023/11/06 08:09:35;;;;;;;45.30;3.40;;;;;;;-147.86;100.00;48507.02;105921;1255;64422;-49
2023/11/06 08:12:03;;;;;;;25.00;2.70;;;;;;;-147.86;100.00;48515.64;105945;1251;72577;-49
2023/11/06 08:14:34;;;;;;;20.20;2.00;;;;;;;-147.86;100.00;48482.71;105998;1255;60335;-50
2023/11/06 08:17:01;;;;;;;64.40;5.30;;;;;;;-147.86;100.00;48474.87;105958;1251;60533;-50
2023/11/06 08:19:28;;;;;;;26.40;2.10;;;;;;;-147.86;100.00;48483.49;105965;1254;73792;-49
2023/11/06 08:21:55;;;;;;;0.70;0.70;;;;;;;-147.86;100.00;48458.00;105980;1255;65214;-46
2023/11/06 08:24:25;;;;;;;1.40;0.80;;;;;;;-147.86;100.00;48443.50;105875;1251;72706;-51
2023/11/06 08:26:52;;;;;;;0.80;0.70;;;;;;;-147.86;100.00;48422.32;105927;1255;60709;-48
2023/11/06 08:29:20;;;;;;;1.30;0.60;;;;;;;-147.86;100.00;48407.82;105975;1251;60463;-46
2023/11/06 08:31:47;;;;;;;3.10;0.70;;;;;;;-147.86;100.00;48404.29;105893;1256;73763;-48
2023/11/06 08:34:14;;;;;;;0.90;0.80;;;;;;;-147.86;100.00;48389.77;105935;1256;64618;-47
2023/11/06 08:36:44;;;;;;;13.80;1.00;;;;;;;-147.86;100.00;48413.70;105975;1254;72694;-51
2023/11/06 08:39:12;;;;;;;20.80;1.70;;;;;;;-147.86;100.00;48413.70;105975;1253;60444;-47
2023/11/06 08:41:40;;;;;;;149.10;6.60;;;;;;;-147.86;100.00;48403.50;105731;1251;60431;-50
2023/11/06 08:44:07;;;;;;;24.40;3.40;;;;;;;-147.86;100.00;48396.45;105855;1254;73051;-52
2023/11/06 08:46:34;;;;;;;48.90;2.60;;;;;;;-147.86;100.00;48407.43;105967;1256;65474;-57
2023/11/06 08:49:01;;;;;;;8.10;1.40;;;;;;;-147.86;100.00;48391.74;105907;1251;72627;-50
2023/11/06 08:51:31;;;;;;;2.00;0.80;;;;;;;-147.86;100.00;48380.37;106003;1256;60415;-47
2023/11/06 08:53:58;;;;;;;1.10;1.00;;;;;;;-147.86;100.00;48384.29;105970;1255;60418;-47
2023/11/06 08:56:29;;;;;;;1.70;0.70;;;;;;;-147.86;100.00;48400.76;105928;1254;74542;-47
2023/11/06 08:58:58;;;;;;;9.60;1.20;;;;;;;-147.86;100.00;48394.48;105968;1255;65253;-51
2023/11/06 09:01:26;;;;;;;25.80;2.40;;;;;;;-147.86;100.00;48382.72;105980;1254;72693;-50
2023/11/06 09:03:53;;;;;;;3.40;1.00;;;;;;;-147.86;100.00;48385.07;105908;1255;60543;-50
2023/11/06 09:06:22;;;;;;;57.30;4.90;;;;;;;-147.86;100.00;48360.77;105970;1254;60412;-49
2023/11/06 09:08:49;;;;;;;1.80;1.20;;;;;;;-147.86;100.00;48374.49;105961;1254;72060;-47
2023/11/06 09:11:16;;;;;;;37.70;3.50;;;;;;;-147.86;100.00;48361.16;105942;1255;65986;-51
2023/11/06 09:13:44;;;;;;;13.50;1.80;;;;;;;-147.86;100.00;48375.66;105960;1254;72688;-49
2023/11/06 09:16:11;;;;;;;56.80;4.40;;;;;;;-147.86;100.00;48381.93;105978;1256;60434;-51
2023/11/06 09:18:39;;;;;;;11.50;1.90;;;;;;;-147.86;100.00;48373.70;105992;1251;60529;-49
2023/11/06 09:21:12;;;;;;;13.00;1.40;;;;;;;-147.86;100.00;48385.86;105968;1254;74792;-49
2023/11/06 09:23:42;;;;;;;9.50;1.40;;;;;;;-147.86;100.00;48374.88;106000;1255;65060;-48
2023/11/06 09:26:10;;;;;;;1.70;1.10;;;;;;;-147.86;100.00;48366.65;105956;1253;72576;-48
2023/11/06 09:28:38;;;;;;;1.20;1.00;;;;;;;-147.86;100.00;48372.53;105983;1254;60767;-49
2023/11/06 09:31:05;;;;;;;23.50;1.60;;;;;;;-147.86;99.95;48367.43;105948;1251;60710;-49
2023/11/06 09:33:33;;;;;;;35.60;3.30;;;;;;;-147.86;99.28;48356.06;105985;1254;73689;-49
2023/11/06 09:36:01;;;;;;;50.60;3.50;;;;;;;-147.86;100.00;48364.69;105965;1255;65147;-47
2023/11/06 09:38:28;;;;;;;57.00;3.50;;;;;;;-147.86;99.66;48372.92;105961;1251;72654;-47
2023/11/06 09:40:55;;;;;;;1.80;1.40;;;;;;;-147.86;88.69;48359.98;106006;1256;60649;-50
2023/11/06 09:43:22;;;;;;;20.60;2.90;;;;;;;-147.86;86.25;48363.90;105941;1251;60607;-49
2023/11/06 09:45:53;;;;;;;5.80;1.00;;;;;;;-147.86;89.76;48365.87;105955;1251;73075;-47
2023/11/06 09:48:20;;;;;;;1.20;1.10;;;;;;;-147.86;84.53;48359.59;105979;1256;66357;-48
2023/11/06 09:50:48;;;;;;;2.00;1.30;;;;;;;-147.86;84.21;48363.90;105732;1251;72684;-50
2023/11/06 09:53:15;;;;;;;1.10;1.00;;;;;;;-147.86;82.03;48354.88;105813;1257;61430;-50
2023/11/06 09:55:42;;;;;;;4.10;1.30;;;;;;;-147.86;82.40;48351.75;105990;1251;60562;-47
2023/11/06 09:58:09;;;;;;;1.50;1.30;;;;;;;-147.86;85.81;48379.58;105932;1251;75774;-46
2023/11/06 10:00:38;;;;;;;1.60;1.40;;;;;;;-147.86;84.66;48359.20;105750;1258;64546;-49
2023/11/06 10:03:06;;;;;;;1.10;1.00;;;;;;;-147.86;87.79;48369.00;105897;1254;72466;-47
2023/11/06 10:05:34;;;;;;;1.10;0.90;;;;;;;-147.86;85.91;48380.37;106001;1257;60524;-48
2023/11/06 10:08:01;;;;;;;2.70;1.20;;;;;;;-147.86;82.62;48364.69;106021;1254;60753;-48
2023/11/06 10:10:29;;;;;;;1.70;1.30;;;;;;;-147.86;82.09;48365.08;105905;1254;74036;-48
2023/11/06 10:13:06;;;;;;;6.50;1.10;;;;;;;-147.86;81.41;48368.61;105974;1256;64972;-47
2023/11/06 10:15:33;;;;;;;7.60;1.30;;;;;;;-147.86;78.94;48354.49;105952;1256;72533;-46
2023/11/06 10:18:18;;;;;;;2.50;1.10;;;;;;;-147.86;72.25;48348.61;105983;1256;61235;-52
2023/11/06 10:20:50;;;;;;;1.00;0.80;;;;;;;-147.86;71.36;48368.61;105957;1256;60585;-49
2023/11/06 10:23:21;;;;;;;3.60;1.20;;;;;;;-147.86;68.72;48359.98;105941;1251;72654;-46
2023/11/06 10:25:49;;;;;;;4.90;0.90;;;;;;;-147.86;67.41;48358.80;105956;1255;65132;-50
2023/11/06 10:28:17;;;;;;;1.10;1.10;;;;;;;-147.86;68.98;48374.49;105922;1251;71222;-46
2023/11/06 10:30:52;;;;;;;5.70;1.40;;;;;;;-147.86;68.72;48369.39;105948;1255;62764;-50
2023/11/06 10:33:20;;;;;;;3.60;0.80;;;;;;;-147.86;69.14;48355.67;105994;1253;60711;-46
2023/11/06 10:35:49;;;;;;;7.20;1.30;;;;;;;-147.86;68.69;48360.76;105952;1256;73938;-47
2023/11/06 10:38:33;;;;;;;1.50;1.00;;;;;;;-147.86;67.44;48363.90;105986;1255;65603;-50
2023/11/06 10:41:03;;;;;;;2.70;1.30;;;;;;;-147.86;67.47;48341.95;105958;1254;70826;-47
2023/11/06 10:43:30;;;;;;;4.60;1.10;;;;;;;-147.86;66.42;48343.51;105764;1257;60445;-48
2023/11/06 10:45:57;;;;;;;1.00;1.00;;;;;;;-147.86;63.45;48352.92;105965;1253;60431;-48
2023/11/06 10:48:33;;;;;;;0.90;0.90;;;;;;;-147.86;63.49;48339.20;105754;1254;74313;-53
2023/11/06 10:51:01;;;;;;;3.10;1.00;;;;;;;-147.86;63.76;48348.61;106011;1254;65051;-48
2023/11/06 10:53:30;;;;;;;4.80;1.50;;;;;;;-147.86;61.54;48360.37;105856;1254;72553;-49
2023/11/06 10:56:05;;;;;;;1.60;0.80;;;;;;;-147.86;61.82;48354.49;105982;1254;60524;-48
2023/11/06 10:58:33;;;;;;;2.20;1.00;;;;;;;-147.86;63.03;48338.42;105986;1252;60418;-47
2023/11/06 11:01:00;;;;;;;2.20;1.10;;;;;;;-147.86;62.42;48355.67;105966;1256;73465;-51
2023/11/06 11:03:28;;;;;;;1.10;1.00;;;;;;;-147.86;61.80;48350.18;105815;1259;64266;-49